createdAt,value
2018-05-02T00:02:25.867Z,5.40
2018-05-02T00:04:54.915Z,5.50
2018-05-02T00:07:23.724Z,5.50
2018-05-02T00:09:52.032Z,5.40
2018-05-02T00:12:20.307Z,5.50
2018-05-02T00:14:48.674Z,5.70
2018-05-02T00:17:16.943Z,5.60
2018-05-02T00:19:45.222Z,6.00
2018-05-02T00:22:14.235Z,6.30
2018-05-02T00:24:42.516Z,6.20
2018-05-02T00:27:11.252Z,6.20
2018-05-02T00:29:39.583Z,6.70
2018-05-02T00:32:07.867Z,7.00
2018-05-02T00:34:36.143Z,6.90
2018-05-02T00:37:04.492Z,6.60
2018-05-02T00:39:32.791Z,6.60
2018-05-02T00:42:01.068Z,6.50
2018-05-02T00:44:29.432Z,6.40
2018-05-02T00:46:57.734Z,6.50
2018-05-02T00:49:26.102Z,6.50
2018-05-02T00:51:55.679Z,6.40
2018-05-02T00:54:25.080Z,6.50
2018-05-02T00:56:53.646Z,6.40
2018-05-02T00:59:23.289Z,6.50
2018-05-02T01:01:51.574Z,6.40
2018-05-02T01:04:19.862Z,6.50
2018-05-02T01:06:49.341Z,6.40
2018-05-02T01:09:19.803Z,6.50
2018-05-02T01:11:48.089Z,6.50
2018-05-02T01:14:17.864Z,6.50
2018-05-02T01:16:46.266Z,6.50
2018-05-02T01:19:15.380Z,6.60
2018-05-02T01:21:43.850Z,6.60
2018-05-02T01:24:12.153Z,6.80
2018-05-02T01:26:41.088Z,6.90
2018-05-02T01:29:09.402Z,7.00
2018-05-02T01:31:38.227Z,7.10
2018-05-02T01:34:06.562Z,7.20
2018-05-02T01:36:34.846Z,7.40
2018-05-02T01:39:03.137Z,7.20
2018-05-02T01:41:31.449Z,7.20
2018-05-02T01:43:59.827Z,7.50
2018-05-02T01:46:28.933Z,7.40
2018-05-02T01:49:14.693Z,7.30
2018-05-02T01:51:42.975Z,7.30
2018-05-02T01:54:11.804Z,7.20
2018-05-02T01:56:40.118Z,7.20
2018-05-02T01:59:08.387Z,7.10
2018-05-02T02:01:36.722Z,7.10
2018-05-02T02:04:05.007Z,7.40
2018-05-02T02:06:34.044Z,7.40
2018-05-02T02:09:02.326Z,7.30
2018-05-02T02:11:31.023Z,7.10
2018-05-02T02:13:59.303Z,7.10
2018-05-02T02:16:28.509Z,7.00
2018-05-02T02:18:56.843Z,7.40
2018-05-02T02:21:25.127Z,7.60
2018-05-02T02:23:53.409Z,7.50
2018-05-02T02:26:21.716Z,7.50
2018-05-02T02:28:50.004Z,7.50
2018-05-02T02:31:18.456Z,7.70
2018-05-02T02:33:46.747Z,7.90
2018-05-02T02:36:15.535Z,7.70
2018-05-02T02:38:43.847Z,7.50
2018-05-02T02:41:12.124Z,7.60
2018-05-02T02:43:40.444Z,7.70
2018-05-02T02:46:08.729Z,7.50
2018-05-02T02:48:37.022Z,7.50
2018-05-02T02:51:05.342Z,7.50
2018-05-02T02:53:34.384Z,7.50
2018-05-02T02:56:02.666Z,7.50
2018-05-02T02:58:30.979Z,7.50
2018-05-02T03:00:59.943Z,7.60
2018-05-02T03:03:28.220Z,7.60
2018-05-02T03:05:56.535Z,7.60
2018-05-02T03:08:24.810Z,7.50
2018-05-02T03:10:53.091Z,7.70
2018-05-02T03:13:21.395Z,7.90
2018-05-02T03:15:49.702Z,8.00
2018-05-02T03:18:17.998Z,8.30
2018-05-02T03:20:46.279Z,8.00
2018-05-02T03:23:14.616Z,7.80
2018-05-02T03:25:43.288Z,7.70
2018-05-02T03:28:11.602Z,7.70
2018-05-02T03:30:40.172Z,7.50
2018-05-02T03:33:08.505Z,7.70
2018-05-02T03:35:37.705Z,7.80
2018-05-02T03:38:06.302Z,7.70
2018-05-02T03:40:35.451Z,7.60
2018-05-02T03:43:04.152Z,7.60
2018-05-02T03:45:32.495Z,7.50
2018-05-02T03:48:00.777Z,7.60
2018-05-02T03:50:29.145Z,7.70
2018-05-02T03:52:57.527Z,7.80
2018-05-02T03:55:25.958Z,7.60
2018-05-02T03:57:54.325Z,7.40
2018-05-02T04:00:40.215Z,7.40
2018-05-02T04:03:26.230Z,7.30
2018-05-02T04:19:33.719Z,7.70
2018-05-02T04:22:07.838Z,7.80
2018-05-02T04:24:37.491Z,7.70
2018-05-02T04:27:07.382Z,7.70
2018-05-02T04:29:36.433Z,7.70
2018-05-02T04:32:05.459Z,7.80
2018-05-02T04:34:33.982Z,7.50
2018-05-02T04:37:02.953Z,7.50
2018-05-02T04:39:31.134Z,7.60
2018-05-02T04:41:59.415Z,7.80
2018-05-02T04:44:27.701Z,7.80
2018-05-02T04:46:56.456Z,8.00
2018-05-02T04:49:24.738Z,8.00
2018-05-02T04:51:53.019Z,8.10
2018-05-02T04:54:21.354Z,8.30
2018-05-02T04:56:50.394Z,8.10
2018-05-02T04:59:18.667Z,8.10
2018-05-02T05:01:47.539Z,8.10
2018-05-02T05:04:15.831Z,8.20
2018-05-02T05:06:44.596Z,8.10
2018-05-02T05:09:12.827Z,8.10
2018-05-02T05:11:41.728Z,8.20
2018-05-02T05:14:10.077Z,8.20
2018-05-02T05:16:38.355Z,8.10
2018-05-02T05:19:07.916Z,8.10
2018-05-02T05:21:36.030Z,8.10
2018-05-02T05:24:04.311Z,8.10
2018-05-02T05:26:32.651Z,8.10
2018-05-02T05:29:00.943Z,8.20
2018-05-02T05:31:30.177Z,8.30
2018-05-02T05:33:58.479Z,8.40
2018-05-02T05:36:27.383Z,8.60
2018-05-02T05:38:55.695Z,8.30
2018-05-02T05:41:24.023Z,8.40
2018-05-02T05:43:52.334Z,8.30
2018-05-02T05:46:20.655Z,8.30
2018-05-02T05:48:49.050Z,8.40
2018-05-02T05:51:17.682Z,8.30
2018-05-02T05:53:46.360Z,8.40
2018-05-02T05:56:15.298Z,8.40
2018-05-02T05:58:43.576Z,8.60
2018-05-02T06:01:11.911Z,8.70
2018-05-02T06:03:40.191Z,9.00
2018-05-02T06:06:08.558Z,9.20
2018-05-02T06:08:36.930Z,9.20
2018-05-02T06:11:05.229Z,9.40
2018-05-02T06:13:33.802Z,9.60
2018-05-02T06:16:02.127Z,9.40
2018-05-02T06:18:30.417Z,9.30
2018-05-02T06:20:58.697Z,9.60
2018-05-02T06:23:27.283Z,9.70
2018-05-02T06:25:55.559Z,9.50
2018-05-02T06:28:24.444Z,9.60
2018-05-02T06:30:52.806Z,9.70
2018-05-02T06:33:21.095Z,9.80
2018-05-02T06:35:49.427Z,9.50
2018-05-02T06:38:17.711Z,9.40
2018-05-02T06:40:45.996Z,9.60
2018-05-02T06:43:14.317Z,9.90
2018-05-02T06:45:42.600Z,9.80
2018-05-02T06:48:10.878Z,9.80
2018-05-02T06:50:39.206Z,9.90
2018-05-02T06:53:07.491Z,10.10
2018-05-02T06:55:35.831Z,10.20
2018-05-02T06:58:04.160Z,10.40
2018-05-02T07:00:32.439Z,10.50
2018-05-02T07:03:00.719Z,10.60
2018-05-02T07:05:29.656Z,10.50
2018-05-02T07:07:57.939Z,10.60
2018-05-02T07:10:26.223Z,10.50
2018-05-02T07:12:55.235Z,10.40
2018-05-02T07:15:23.454Z,10.30
2018-05-02T07:17:51.757Z,10.30
2018-05-02T07:20:20.085Z,10.30
2018-05-02T07:22:48.451Z,10.20
2018-05-02T07:25:16.760Z,10.30
2018-05-02T07:27:45.178Z,10.40
2018-05-02T07:30:13.931Z,10.50
2018-05-02T07:32:42.319Z,10.60
2018-05-02T07:35:11.015Z,10.70
2018-05-02T07:37:39.383Z,11.00
2018-05-02T07:40:07.674Z,11.10
2018-05-02T07:42:36.015Z,11.20
2018-05-02T07:45:04.391Z,11.10
2018-05-02T07:47:32.714Z,11.20
2018-05-02T07:50:00.994Z,11.30
2018-05-02T07:52:29.899Z,11.40
2018-05-02T07:54:58.719Z,11.40
2018-05-02T07:57:27.493Z,11.20
2018-05-02T07:59:57.235Z,11.00
2018-05-02T08:02:25.578Z,10.80
2018-05-02T08:04:53.859Z,10.90
2018-05-02T08:07:22.157Z,10.80
2018-05-02T08:09:51.294Z,11.30
2018-05-02T08:12:19.578Z,10.80
2018-05-02T08:14:47.862Z,11.20
2018-05-02T08:17:16.319Z,11.60
2018-05-02T08:19:46.097Z,12.10
2018-05-02T08:22:14.436Z,12.70
2018-05-02T08:24:42.790Z,13.60
2018-05-02T08:27:11.711Z,14.60
2018-05-02T08:29:40.139Z,13.30
2018-05-02T08:32:08.555Z,13.80
2018-05-02T08:34:37.386Z,14.60
2018-05-02T08:37:05.679Z,14.50
2018-05-02T08:39:33.919Z,15.00
2018-05-02T08:42:02.075Z,15.50
2018-05-02T08:44:30.871Z,16.10
2018-05-02T08:46:59.678Z,15.40
2018-05-02T08:49:27.961Z,17.20
2018-05-02T08:51:56.410Z,17.40
2018-05-02T08:54:24.705Z,18.40
2018-05-02T08:56:53.622Z,17.70
2018-05-02T08:59:21.943Z,15.80
2018-05-02T09:01:50.257Z,15.60
2018-05-02T09:04:18.522Z,16.30
2018-05-02T09:06:46.833Z,17.20
2018-05-02T09:09:15.112Z,18.30
2018-05-02T09:11:44.014Z,17.20
2018-05-02T09:14:12.298Z,16.30
2018-05-02T09:16:40.575Z,15.50
2018-05-02T09:19:09.415Z,15.90
2018-05-02T09:21:37.699Z,16.70
2018-05-02T09:24:06.168Z,17.90
2018-05-02T09:26:34.511Z,16.50
2018-05-02T09:29:02.834Z,16.00
2018-05-02T09:31:31.119Z,16.70
2018-05-02T09:33:59.879Z,16.60
2018-05-02T09:36:28.918Z,18.00
2018-05-02T09:38:57.622Z,17.40
2018-05-02T09:41:25.926Z,16.20
2018-05-02T09:43:54.239Z,15.90
2018-05-02T09:46:22.722Z,15.90
2018-05-02T09:48:51.191Z,15.70
2018-05-02T09:51:19.473Z,15.80
2018-05-02T09:53:48.507Z,16.10
2018-05-02T09:56:16.822Z,15.80
2018-05-02T09:58:45.103Z,16.10
2018-05-02T10:01:13.402Z,15.10
2018-05-02T10:03:41.726Z,15.40
2018-05-02T10:06:10.012Z,14.90
2018-05-02T10:08:39.061Z,14.10
2018-05-02T10:11:07.405Z,14.10
2018-05-02T10:13:36.457Z,14.30
2018-05-02T10:16:05.334Z,14.30
2018-05-02T10:18:33.478Z,14.40
2018-05-02T10:21:01.751Z,14.50
2018-05-02T10:23:30.341Z,14.20
2018-05-02T10:25:59.042Z,14.70
2018-05-02T10:28:27.326Z,14.90
2018-05-02T10:30:55.692Z,14.60
2018-05-02T10:33:24.747Z,15.00
2018-05-02T10:35:53.829Z,15.60
2018-05-02T10:38:22.107Z,15.50
2018-05-02T10:40:50.438Z,16.00
2018-05-02T10:43:18.722Z,16.00
2018-05-02T10:45:47.027Z,16.20
2018-05-02T10:48:15.554Z,16.30
2018-05-02T10:50:43.830Z,15.40
2018-05-02T10:53:12.110Z,15.60
2018-05-02T10:55:40.339Z,16.20
2018-05-02T10:58:08.626Z,16.90
2018-05-02T11:00:36.899Z,17.40
2018-05-02T11:03:05.231Z,17.60
2018-05-02T11:05:33.507Z,18.30
2018-05-02T11:08:01.859Z,17.90
2018-05-02T11:10:30.052Z,18.50
2018-05-02T11:12:58.337Z,18.10
2018-05-02T11:15:26.613Z,18.20
2018-05-02T11:17:54.935Z,17.60
2018-05-02T11:20:23.214Z,16.70
2018-05-02T11:22:51.495Z,15.70
2018-05-02T11:25:19.819Z,16.10
2018-05-02T11:27:48.099Z,17.50
2018-05-02T11:30:16.375Z,17.10
2018-05-02T11:32:44.701Z,17.60
2018-05-02T11:35:13.463Z,17.10
2018-05-02T11:37:41.743Z,17.00
2018-05-02T11:40:10.715Z,17.10
2018-05-02T11:42:39.007Z,17.40
2018-05-02T11:45:07.287Z,16.70
2018-05-02T11:47:35.625Z,16.70
2018-05-02T11:50:03.903Z,15.30
2018-05-02T11:52:32.343Z,16.00
2018-05-02T11:55:00.663Z,16.10
2018-05-02T11:57:28.946Z,16.80
2018-05-02T11:59:57.746Z,18.10
2018-05-02T12:02:26.082Z,18.80
2018-05-02T12:04:54.618Z,18.20
2018-05-02T12:07:22.939Z,17.10
2018-05-02T12:09:51.313Z,17.60
2018-05-02T12:12:19.939Z,17.50
2018-05-02T12:14:48.247Z,17.90
2018-05-02T12:17:16.534Z,17.80
2018-05-02T12:19:44.862Z,18.70
2018-05-02T12:22:13.164Z,18.80
2018-05-02T12:24:41.633Z,19.80
2018-05-02T12:27:09.950Z,20.40
2018-05-02T12:29:38.230Z,20.10
2018-05-02T12:32:06.967Z,19.60
2018-05-02T12:34:35.266Z,19.50
2018-05-02T12:37:03.538Z,19.40
2018-05-02T12:39:31.853Z,19.50
2018-05-02T12:42:00.135Z,19.40
2018-05-02T12:44:29.470Z,18.40
2018-05-02T12:46:57.786Z,18.40
2018-05-02T12:49:26.071Z,19.10
2018-05-02T12:51:54.348Z,18.50
2018-05-02T12:54:22.671Z,18.90
2018-05-02T12:56:50.955Z,19.30
2018-05-02T12:59:19.231Z,18.20
2018-05-02T13:01:47.582Z,17.90
2018-05-02T13:04:15.864Z,18.50
2018-05-02T13:06:44.148Z,19.20
2018-05-02T13:09:12.463Z,19.90
2018-05-02T13:11:40.742Z,20.20
2018-05-02T13:14:09.033Z,19.10
2018-05-02T13:16:37.364Z,18.70
2018-05-02T13:19:06.415Z,19.10
2018-05-02T13:21:35.026Z,19.10
2018-05-02T13:24:03.411Z,19.40
2018-05-02T13:26:31.695Z,17.60
2018-05-02T13:29:00.007Z,17.50
2018-05-02T13:31:28.379Z,17.80
2018-05-02T13:33:56.754Z,18.00
2018-05-02T13:36:25.042Z,17.80
2018-05-02T13:38:53.371Z,17.80
2018-05-02T13:41:21.721Z,17.50
2018-05-02T13:43:50.028Z,17.80
2018-05-02T13:46:18.491Z,17.70
2018-05-02T13:48:47.073Z,17.80
2018-05-02T13:51:15.359Z,18.20
2018-05-02T13:53:43.783Z,18.10
2018-05-02T13:56:12.714Z,17.80
2018-05-02T13:58:40.998Z,17.30
2018-05-02T14:01:09.334Z,17.30
2018-05-02T14:03:37.758Z,17.70
2018-05-02T14:06:06.642Z,18.10
2018-05-02T14:08:35.023Z,17.10
2018-05-02T14:11:03.254Z,17.60
2018-05-02T14:13:31.302Z,17.50
2018-05-02T14:16:00.109Z,17.80
2018-05-02T14:18:28.318Z,18.60
2018-05-02T14:20:56.604Z,18.90
2018-05-02T14:23:25.390Z,19.80
2018-05-02T14:25:53.670Z,19.90
2018-05-02T14:28:21.958Z,20.10
2018-05-02T14:30:50.294Z,19.20
2018-05-02T14:33:18.576Z,19.40
2018-05-02T14:35:46.867Z,19.40
2018-05-02T14:38:15.247Z,18.70
2018-05-02T14:40:43.512Z,18.70
2018-05-02T14:43:11.819Z,18.60
2018-05-02T14:45:40.133Z,18.10
2018-05-02T14:48:08.415Z,17.70
2018-05-02T14:50:37.132Z,17.80
2018-05-02T14:53:05.613Z,18.10
2018-05-02T14:55:33.829Z,17.60
2018-05-02T14:58:02.174Z,17.70
2018-05-02T15:00:30.578Z,17.80
2018-05-02T15:02:59.799Z,17.50
2018-05-02T15:05:28.254Z,17.80
2018-05-02T15:07:56.562Z,18.20
2018-05-02T15:10:25.618Z,18.30
2018-05-02T15:12:53.958Z,18.30
2018-05-02T15:15:22.747Z,18.20
2018-05-02T15:17:51.726Z,17.70
2018-05-02T15:20:20.022Z,17.80
2018-05-02T15:22:48.301Z,18.00
2018-05-02T15:25:17.015Z,18.10
2018-05-02T15:27:45.301Z,17.70
2018-05-02T15:30:13.583Z,17.90
2018-05-02T15:32:42.395Z,17.50
2018-05-02T15:35:11.119Z,18.00
2018-05-02T15:37:39.439Z,17.70
2018-05-02T15:40:07.766Z,17.50
2018-05-02T15:42:36.559Z,17.80
2018-05-02T15:45:04.846Z,17.80
2018-05-02T15:47:33.171Z,17.60
2018-05-02T15:50:01.630Z,17.50
2018-05-02T15:52:29.919Z,17.30
2018-05-02T15:54:58.555Z,17.30
2018-05-02T15:57:27.446Z,17.20
2018-05-02T15:59:56.578Z,17.40
2018-05-02T16:02:24.901Z,17.80
2018-05-02T16:04:53.186Z,18.10
2018-05-02T16:07:21.518Z,18.00
2018-05-02T16:09:50.258Z,17.70
2018-05-02T16:12:18.894Z,17.30
2018-05-02T16:14:47.203Z,17.10
2018-05-02T16:17:15.487Z,17.20
2018-05-02T16:19:43.854Z,17.20
2018-05-02T16:22:12.144Z,17.00
2018-05-02T16:24:40.513Z,17.10
2018-05-02T16:27:08.806Z,17.30
2018-05-02T16:29:37.956Z,17.00
2018-05-02T16:32:06.248Z,17.20
2018-05-02T16:34:34.526Z,17.50
2018-05-02T16:37:02.901Z,17.40
2018-05-02T16:39:31.207Z,17.10
2018-05-02T16:41:59.590Z,16.80
2018-05-02T16:44:27.894Z,16.70
2018-05-02T16:46:56.210Z,16.60
2018-05-02T16:49:24.787Z,16.40
2018-05-02T16:51:53.070Z,16.30
2018-05-02T16:54:21.382Z,16.20
2018-05-02T16:56:49.754Z,16.30
2018-05-02T16:59:18.943Z,16.20
2018-05-02T17:01:47.242Z,16.00
2018-05-02T17:04:16.212Z,16.00
2018-05-02T17:06:45.755Z,16.20
2018-05-02T17:09:14.047Z,16.00
2018-05-02T17:11:42.403Z,15.80
2018-05-02T17:14:10.752Z,15.90
2018-05-02T17:16:39.035Z,15.90
2018-05-02T17:19:07.379Z,15.90
2018-05-02T17:21:36.175Z,15.80
2018-05-02T17:24:04.469Z,15.80
2018-05-02T17:26:32.794Z,15.80
2018-05-02T17:29:01.079Z,15.60
2018-05-02T17:31:30.155Z,15.50
2018-05-02T17:33:59.898Z,15.40
2018-05-02T17:36:28.991Z,15.50
2018-05-02T17:38:57.762Z,15.40
2018-05-02T17:41:27.889Z,15.50
2018-05-02T17:43:56.974Z,15.40
2018-05-02T17:46:25.489Z,15.40
2018-05-02T17:48:54.710Z,15.40
2018-05-02T17:51:23.039Z,15.30
2018-05-02T17:53:51.711Z,15.30
2018-05-02T17:56:19.996Z,15.20
2018-05-02T17:58:48.338Z,15.10
2018-05-02T18:01:16.617Z,15.10
2018-05-02T18:03:44.975Z,15.10
2018-05-02T18:06:13.250Z,15.10
2018-05-02T18:08:41.723Z,15.10
2018-05-02T18:11:10.124Z,15.00
2018-05-02T18:13:39.696Z,15.00
2018-05-02T18:16:08.646Z,15.00
2018-05-02T18:18:37.763Z,14.80
2018-05-02T18:21:06.091Z,14.80
2018-05-02T18:23:34.378Z,14.70
2018-05-02T18:26:02.938Z,14.60
2018-05-02T18:28:31.431Z,14.50
2018-05-02T18:31:01.734Z,14.40
2018-05-02T18:33:30.230Z,14.40
2018-05-02T18:35:58.561Z,14.30
2018-05-02T18:38:28.063Z,14.30
2018-05-02T18:40:56.506Z,14.30
2018-05-02T18:43:26.102Z,14.30
2018-05-02T18:45:54.603Z,14.30
2018-05-02T18:48:23.683Z,14.20
2018-05-02T18:50:53.572Z,14.20
2018-05-02T18:53:22.203Z,14.20
2018-05-02T18:55:52.031Z,14.20
2018-05-02T18:58:21.227Z,14.10
2018-05-02T19:00:49.372Z,14.10
2018-05-02T19:03:17.606Z,14.10
2018-05-02T19:05:46.081Z,14.10
2018-05-02T19:08:14.430Z,14.10
2018-05-02T19:10:42.731Z,14.10
2018-05-02T19:13:11.012Z,14.10
2018-05-02T19:15:39.155Z,14.10
2018-05-02T19:18:12.823Z,14.10
2018-05-02T19:20:41.134Z,14.10
2018-05-02T19:23:10.099Z,14.00
2018-05-02T19:25:43.857Z,14.00
2018-05-02T19:28:12.246Z,14.00
2018-05-02T19:30:40.889Z,14.00
2018-05-02T19:33:14.615Z,14.00
2018-05-02T19:35:43.551Z,13.90
2018-05-02T19:38:11.835Z,13.90
2018-05-02T19:40:45.696Z,13.80
2018-05-02T19:43:19.414Z,13.80
2018-05-02T19:45:47.718Z,13.80
2018-05-02T19:48:16.216Z,13.80
2018-05-02T19:50:50.490Z,13.70
2018-05-02T19:53:18.819Z,13.60
2018-05-02T19:55:47.239Z,13.60
2018-05-02T19:58:15.532Z,13.60
2018-05-02T20:00:49.399Z,13.50
2018-05-02T20:03:17.943Z,13.50
2018-05-02T20:05:46.438Z,13.50
2018-05-02T20:08:21.547Z,13.50
2018-05-02T20:10:55.543Z,13.40
2018-05-02T20:13:29.671Z,13.30
2018-05-02T20:15:58.500Z,13.30
2018-05-02T20:18:27.091Z,13.20
2018-05-02T20:20:55.691Z,13.20
2018-05-02T20:23:24.347Z,13.20
2018-05-02T20:25:53.139Z,13.20
2018-05-02T20:28:21.827Z,13.20
2018-05-02T20:30:50.452Z,13.20
2018-05-02T20:33:18.714Z,13.10
2018-05-02T20:35:47.227Z,13.10
2018-05-02T20:38:15.511Z,13.00
2018-05-02T20:40:44.220Z,13.00
2018-05-02T20:43:12.510Z,12.90
2018-05-02T20:45:40.801Z,12.90
2018-05-02T20:48:09.134Z,12.80
2018-05-02T20:50:38.370Z,12.80
2018-05-02T20:53:07.324Z,12.70
2018-05-02T20:55:35.415Z,12.70
2018-05-02T20:58:04.495Z,12.60
2018-05-02T21:00:32.586Z,12.60
2018-05-02T21:03:01.370Z,12.50
2018-05-02T21:05:29.872Z,12.40
2018-05-02T21:07:58.262Z,12.40
2018-05-02T21:10:27.096Z,12.40
2018-05-02T21:12:55.381Z,12.40
2018-05-02T21:15:23.716Z,12.30
2018-05-02T21:17:52.870Z,12.40
2018-05-02T21:20:21.026Z,12.30
2018-05-02T21:22:49.693Z,12.40
2018-05-02T21:25:18.014Z,12.30
2018-05-02T21:27:46.315Z,12.30
2018-05-02T21:30:14.592Z,12.20
2018-05-02T21:32:43.279Z,12.00
2018-05-02T21:35:11.567Z,11.90
2018-05-02T21:37:40.611Z,11.90
2018-05-02T21:40:08.918Z,11.90
2018-05-02T21:42:37.194Z,11.90
2018-05-02T21:45:05.799Z,11.90
2018-05-02T21:47:34.275Z,12.10
2018-05-02T21:50:02.874Z,12.20
2018-05-02T21:52:31.947Z,12.00
2018-05-02T21:55:00.286Z,11.90
2018-05-02T21:57:28.579Z,11.80
2018-05-02T21:59:57.087Z,11.80
2018-05-02T22:02:26.250Z,11.80
2018-05-02T22:04:54.535Z,11.80
2018-05-02T22:07:22.643Z,11.70
2018-05-02T22:09:51.523Z,11.70
2018-05-02T22:12:21.560Z,11.60
2018-05-02T22:14:50.512Z,11.60
2018-05-02T22:17:19.063Z,11.60
2018-05-02T22:19:47.387Z,11.50
2018-05-02T22:22:15.834Z,11.60
2018-05-02T22:24:44.113Z,11.70
2018-05-02T22:27:12.471Z,11.60
2018-05-02T22:29:40.799Z,11.70
2018-05-02T22:32:09.079Z,11.60
2018-05-02T22:34:37.410Z,11.50
2018-05-02T22:37:05.702Z,11.50
2018-05-02T22:39:33.987Z,11.50
2018-05-02T22:42:02.304Z,11.50
2018-05-02T22:44:30.795Z,11.40
2018-05-02T22:46:59.111Z,11.40
2018-05-02T22:49:27.399Z,11.30
2018-05-02T22:51:55.938Z,11.20
2018-05-02T22:54:24.254Z,11.10
2018-05-02T22:56:52.540Z,11.20
2018-05-02T22:59:21.335Z,11.40
2018-05-02T23:01:50.076Z,11.50
2018-05-02T23:04:18.383Z,11.70
2018-05-02T23:06:46.682Z,11.80
2018-05-02T23:09:15.037Z,11.70
2018-05-02T23:11:43.322Z,11.60
2018-05-02T23:14:11.598Z,11.60
2018-05-02T23:16:39.927Z,11.50
2018-05-02T23:19:08.219Z,11.50
2018-05-02T23:21:36.526Z,11.50
2018-05-02T23:24:04.843Z,11.50
2018-05-02T23:26:33.123Z,11.50
2018-05-02T23:29:01.486Z,11.40
2018-05-02T23:31:29.950Z,11.50
2018-05-02T23:33:58.722Z,11.50
2018-05-02T23:36:27.007Z,11.40
2018-05-02T23:38:55.370Z,11.40
2018-05-02T23:41:23.681Z,11.40
2018-05-02T23:43:51.947Z,11.60
2018-05-02T23:46:20.481Z,11.70
2018-05-02T23:48:48.766Z,11.60
2018-05-02T23:51:17.059Z,11.80
2018-05-02T23:53:45.359Z,12.10
2018-05-02T23:56:13.651Z,12.40
2018-05-02T23:58:41.942Z,12.40
